createdAt,value
2023-03-12T00:01:41.561Z,2.30
2023-03-12T00:05:26.208Z,2.25
2023-03-12T00:09:09.191Z,2.23
2023-03-12T00:12:51.844Z,2.20
2023-03-12T00:16:34.585Z,2.18
2023-03-12T00:20:17.796Z,2.20
2023-03-12T00:24:01.820Z,2.19
2023-03-12T00:27:44.776Z,2.24
2023-03-12T00:31:30.064Z,2.20
2023-03-12T00:35:12.796Z,2.17
2023-03-12T00:38:58.378Z,2.18
2023-03-12T00:42:42.412Z,2.12
2023-03-12T00:46:25.373Z,2.09
2023-03-12T00:50:08.996Z,2.07
2023-03-12T00:53:51.666Z,2.06
2023-03-12T00:57:34.381Z,2.04
2023-03-12T01:01:18.629Z,1.95
2023-03-12T01:05:01.283Z,1.85
2023-03-12T01:08:43.985Z,1.78
2023-03-12T01:12:26.669Z,1.80
2023-03-12T01:16:09.723Z,1.79
2023-03-12T01:19:53.805Z,1.79
2023-03-12T01:23:36.461Z,1.82
2023-03-12T01:27:20.373Z,1.79
2023-03-12T01:31:08.065Z,1.65
2023-03-12T01:34:50.879Z,1.69
2023-03-12T01:38:34.892Z,1.72
2023-03-12T01:42:17.574Z,1.78
2023-03-12T01:46:05.801Z,1.76
2023-03-12T01:49:49.682Z,1.78
2023-03-12T01:53:34.225Z,1.79
2023-03-12T01:57:19.472Z,1.84
2023-03-12T02:01:02.160Z,1.88
2023-03-12T02:04:46.981Z,1.93
2023-03-12T02:08:29.749Z,1.95
2023-03-12T02:12:14.406Z,2.00
2023-03-12T02:15:57.110Z,2.00
2023-03-12T02:19:44.977Z,2.02
2023-03-12T02:23:31.586Z,2.05
2023-03-12T02:27:15.676Z,2.06
2023-03-12T02:31:00.564Z,1.93
2023-03-12T02:34:43.231Z,1.81
2023-03-12T02:38:40.373Z,1.80
2023-03-12T02:42:25.242Z,1.77
2023-03-12T02:46:09.394Z,1.71
2023-03-12T02:49:53.583Z,1.70
2023-03-12T02:53:36.245Z,1.68
2023-03-12T02:57:18.967Z,1.61
2023-03-12T03:01:03.130Z,1.59
2023-03-12T03:04:45.889Z,1.60
2023-03-12T03:08:29.111Z,1.61
2023-03-12T03:12:11.719Z,1.64
2023-03-12T03:15:54.431Z,1.66
2023-03-12T03:19:38.498Z,1.66
2023-03-12T03:23:21.165Z,1.61
2023-03-12T03:27:03.832Z,1.64
2023-03-12T03:30:47.294Z,1.72
2023-03-12T03:34:30.021Z,1.72
2023-03-12T03:38:14.059Z,1.72
2023-03-12T03:41:56.982Z,1.73
2023-03-12T03:45:39.697Z,1.77
2023-03-12T03:49:22.620Z,1.79
2023-03-12T03:53:05.615Z,1.81
2023-03-12T03:56:49.652Z,1.86
2023-03-12T04:00:32.454Z,1.90
2023-03-12T04:04:15.150Z,1.94
2023-03-12T04:08:02.981Z,2.00
2023-03-12T04:11:45.623Z,2.02
2023-03-12T04:15:29.631Z,2.03
2023-03-12T04:19:12.305Z,2.05
2023-03-12T04:22:55.032Z,2.01
2023-03-12T04:26:37.727Z,2.03
2023-03-12T04:30:20.566Z,1.98
2023-03-12T04:34:04.737Z,2.01
2023-03-12T04:37:47.470Z,2.00
2023-03-12T04:41:30.118Z,2.01
2023-03-12T04:45:13.059Z,2.03
2023-03-12T04:48:55.763Z,2.01
2023-03-12T04:52:40.342Z,1.99
2023-03-12T04:56:23.297Z,2.04
2023-03-12T05:00:10.832Z,2.10
2023-03-12T05:03:53.933Z,2.17
2023-03-12T05:07:36.658Z,2.17
2023-03-12T05:11:21.600Z,2.20
2023-03-12T05:15:04.700Z,2.23
2023-03-12T05:18:47.775Z,2.27
2023-03-12T05:22:30.498Z,2.30
2023-03-12T05:26:18.400Z,2.27
2023-03-12T05:30:02.617Z,2.28
2023-03-12T05:33:45.522Z,2.27
2023-03-12T05:37:28.214Z,2.22
2023-03-12T05:41:21.367Z,2.21
2023-03-12T05:45:06.623Z,2.17
2023-03-12T05:48:49.334Z,2.22
2023-03-12T05:52:31.975Z,2.28
2023-03-12T05:56:17.507Z,2.29
2023-03-12T06:00:00.183Z,2.32
2023-03-12T06:03:44.365Z,2.35
2023-03-12T06:07:27.085Z,2.36
2023-03-12T06:11:10.033Z,2.37
2023-03-12T06:14:52.707Z,2.42
2023-03-12T06:18:36.174Z,2.39
2023-03-12T06:22:20.221Z,2.41
2023-03-12T06:26:02.862Z,2.44
2023-03-12T06:29:46.484Z,2.50
2023-03-12T06:33:29.242Z,2.58
2023-03-12T06:37:12.397Z,2.64
2023-03-12T06:40:57.566Z,2.73
2023-03-12T06:44:40.219Z,2.78
2023-03-12T06:48:23.154Z,2.82
2023-03-12T06:52:06.396Z,2.87
2023-03-12T06:55:51.046Z,2.91
2023-03-12T06:59:35.092Z,2.91
2023-03-12T07:03:18.012Z,2.94
2023-03-12T07:07:00.721Z,2.99
2023-03-12T07:10:43.468Z,3.05
2023-03-12T07:14:26.651Z,3.08
2023-03-12T07:18:12.471Z,3.07
2023-03-12T07:21:55.156Z,3.10
2023-03-12T07:25:38.554Z,3.14
2023-03-12T07:29:21.254Z,3.20
2023-03-12T07:33:04.857Z,3.29
2023-03-12T07:36:49.072Z,3.37
2023-03-12T07:40:32.381Z,3.43
2023-03-12T07:44:15.054Z,3.51
2023-03-12T07:47:57.904Z,3.54
2023-03-12T07:51:40.690Z,3.61
2023-03-12T07:55:24.742Z,3.65
2023-03-12T07:59:07.629Z,3.73
2023-03-12T08:02:50.520Z,3.81
2023-03-12T08:06:38.544Z,3.87
2023-03-12T08:10:22.389Z,3.92
2023-03-12T08:14:06.729Z,3.97
2023-03-12T08:17:49.437Z,3.99
2023-03-12T08:21:32.132Z,4.02
2023-03-12T08:25:14.829Z,4.03
2023-03-12T08:28:57.725Z,4.06
2023-03-12T08:32:41.974Z,4.06
2023-03-12T08:36:24.752Z,4.01
2023-03-12T08:40:13.085Z,4.01
2023-03-12T08:43:55.970Z,4.05
2023-03-12T08:47:41.497Z,4.16
2023-03-12T08:51:25.779Z,4.16
2023-03-12T08:55:09.354Z,4.20
2023-03-12T08:58:52.095Z,4.22
2023-03-12T09:02:34.778Z,4.16
2023-03-12T09:06:19.342Z,4.22
2023-03-12T09:10:03.762Z,4.26
2023-03-12T09:17:50.591Z,4.36
2023-03-12T09:21:33.333Z,4.31
2023-03-12T09:25:17.920Z,4.16
2023-03-12T09:29:00.582Z,4.11
2023-03-12T09:32:44.674Z,4.08
2023-03-12T09:36:27.430Z,4.07
2023-03-12T09:40:13.922Z,4.20
2023-03-12T09:43:59.874Z,4.33
2023-03-12T09:47:48.189Z,4.25
2023-03-12T09:51:35.340Z,4.16
2023-03-12T09:55:20.093Z,4.04
2023-03-12T09:59:04.323Z,3.99
2023-03-12T10:03:09.722Z,3.91
2023-03-12T10:06:57.196Z,3.85
2023-03-12T10:10:48.522Z,3.78
2023-03-12T10:14:43.788Z,3.80
2023-03-12T10:18:37.539Z,3.79
2023-03-12T10:22:29.074Z,3.85
2023-03-12T10:26:15.956Z,3.79
2023-03-12T10:30:00.381Z,3.67
2023-03-12T10:33:48.709Z,3.52
2023-03-12T10:37:34.500Z,3.45
2023-03-12T10:41:19.470Z,3.43
2023-03-12T10:45:17.527Z,3.45
2023-03-12T10:49:24.668Z,3.49
2023-03-12T10:53:15.795Z,3.46
2023-03-12T10:56:58.524Z,5.98
2023-03-12T11:00:42.541Z,6.88
2023-03-12T11:04:29.946Z,6.11
2023-03-12T11:08:24.199Z,5.55
2023-03-12T11:12:24.595Z,5.16
2023-03-12T11:16:31.418Z,4.99
2023-03-12T11:20:28.259Z,4.84
2023-03-12T11:24:12.488Z,4.90
2023-03-12T11:27:56.781Z,5.06
2023-03-12T11:31:46.996Z,5.15
2023-03-12T11:35:35.376Z,5.15
2023-03-12T11:39:25.434Z,5.07
2023-03-12T11:43:40.031Z,4.95
2023-03-12T11:47:38.129Z,5.04
2023-03-12T11:51:28.667Z,5.16
2023-03-12T11:55:19.481Z,5.21
2023-03-12T11:59:14.092Z,5.28
2023-03-12T12:03:28.525Z,5.39
2023-03-12T12:07:18.814Z,5.56
2023-03-12T12:11:06.138Z,5.61
2023-03-12T12:14:59.236Z,5.71
2023-03-12T12:18:54.080Z,5.79
2023-03-12T12:22:45.398Z,5.84
2023-03-12T12:26:33.646Z,5.91
2023-03-12T12:30:20.222Z,6.00
2023-03-12T12:34:32.637Z,6.12
2023-03-12T12:38:22.450Z,6.20
2023-03-12T12:42:06.946Z,6.27
2023-03-12T12:45:51.336Z,6.34
2023-03-12T12:49:37.625Z,6.41
2023-03-12T12:53:25.233Z,6.49
2023-03-12T12:57:12.921Z,6.56
2023-03-12T13:00:57.179Z,6.63
2023-03-12T13:04:41.070Z,6.70
2023-03-12T13:08:38.001Z,6.79
2023-03-12T13:12:26.760Z,6.85
2023-03-12T13:16:22.394Z,7.00
2023-03-12T13:20:15.519Z,7.10
2023-03-12T13:24:08.525Z,7.22
2023-03-12T13:27:59.106Z,7.32
2023-03-12T13:31:43.976Z,7.37
2023-03-12T13:35:31.595Z,7.47
2023-03-12T13:39:31.947Z,7.93
2023-03-12T13:43:16.645Z,8.03
2023-03-12T13:47:00.587Z,8.34
2023-03-12T13:50:52.368Z,8.40
2023-03-12T13:54:41.593Z,8.57
2023-03-12T13:58:24.309Z,8.58
2023-03-12T14:02:17.820Z,8.54
2023-03-12T14:06:02.032Z,8.53
2023-03-12T14:09:48.804Z,8.51
2023-03-12T14:13:43.715Z,8.55
2023-03-12T14:17:28.198Z,8.69
2023-03-12T14:21:16.002Z,8.90
2023-03-12T14:25:04.192Z,9.14
2023-03-12T14:28:47.569Z,9.48
2023-03-12T14:32:32.786Z,9.93
2023-03-12T14:36:18.469Z,10.29
2023-03-12T14:40:05.611Z,10.38
2023-03-12T14:43:52.442Z,10.36
2023-03-12T14:47:41.842Z,10.38
2023-03-12T14:51:26.144Z,10.77
2023-03-12T14:55:15.484Z,10.37
2023-03-12T14:58:59.172Z,10.14
2023-03-12T15:02:43.237Z,9.99
2023-03-12T15:06:30.073Z,9.86
2023-03-12T15:10:21.834Z,9.77
2023-03-12T15:14:06.273Z,9.72
2023-03-12T15:17:49.601Z,9.67
2023-03-12T15:21:34.102Z,9.68
2023-03-12T15:25:24.549Z,9.59
2023-03-12T15:29:26.211Z,9.54
2023-03-12T15:33:11.677Z,9.51
2023-03-12T15:36:55.271Z,9.48
2023-03-12T15:40:39.342Z,9.38
2023-03-12T15:44:23.639Z,9.34
2023-03-12T15:48:17.498Z,9.30
2023-03-12T15:52:03.460Z,9.24
2023-03-12T15:56:03.048Z,9.22
2023-03-12T15:59:45.852Z,9.22
2023-03-12T16:03:28.467Z,9.20
2023-03-12T16:07:14.511Z,9.17
2023-03-12T16:10:58.526Z,9.21
2023-03-12T16:14:41.245Z,9.17
2023-03-12T16:18:24.731Z,9.16
2023-03-12T16:22:07.523Z,9.15
2023-03-12T16:25:52.003Z,9.14
2023-03-12T16:29:38.577Z,9.19
2023-03-12T16:33:23.225Z,9.17
2023-03-12T16:37:05.964Z,9.15
2023-03-12T16:40:50.298Z,9.12
2023-03-12T16:44:37.017Z,9.04
2023-03-12T16:48:22.016Z,8.94
2023-03-12T16:52:17.036Z,8.93
2023-03-12T16:56:01.787Z,8.92
2023-03-12T16:59:45.826Z,8.86
2023-03-12T17:03:35.513Z,8.80
2023-03-12T17:07:18.929Z,8.70
2023-03-12T17:11:01.632Z,8.65
2023-03-12T17:14:45.670Z,8.55
2023-03-12T17:18:28.461Z,8.75
2023-03-12T17:22:11.243Z,9.78
2023-03-12T17:25:53.922Z,9.33
2023-03-12T17:29:36.655Z,9.03
2023-03-12T17:33:20.730Z,8.77
2023-03-12T17:37:03.516Z,8.57
2023-03-12T17:40:46.433Z,8.49
2023-03-12T17:44:34.379Z,8.37
2023-03-12T17:48:17.504Z,8.35
2023-03-12T17:52:03.064Z,8.31
2023-03-12T17:55:47.297Z,8.21
2023-03-12T17:59:29.997Z,8.16
2023-03-12T18:03:12.812Z,8.11
2023-03-12T18:06:55.522Z,8.08
2023-03-12T18:10:42.510Z,8.03
2023-03-12T18:14:25.297Z,8.00
2023-03-12T18:18:08.083Z,7.97
2023-03-12T18:21:50.796Z,7.92
2023-03-12T18:25:33.481Z,7.87
2023-03-12T18:29:17.581Z,7.87
2023-03-12T18:33:00.428Z,7.82
2023-03-12T18:36:43.186Z,7.81
2023-03-12T18:40:27.594Z,7.77
2023-03-12T18:44:10.508Z,7.73
2023-03-12T18:47:54.616Z,7.74
2023-03-12T18:51:40.266Z,7.71
2023-03-12T18:55:22.919Z,7.64
2023-03-12T18:59:05.731Z,7.57
2023-03-12T19:02:48.923Z,7.55
2023-03-12T19:06:44.323Z,7.53
2023-03-12T19:10:32.648Z,7.49
2023-03-12T19:14:15.405Z,7.47
2023-03-12T19:17:58.395Z,7.45
2023-03-12T19:21:42.404Z,7.44
2023-03-12T19:25:25.143Z,7.43
2023-03-12T19:29:07.885Z,7.44
2023-03-12T19:32:50.565Z,7.42
2023-03-12T19:36:33.324Z,7.38
2023-03-12T19:40:17.652Z,7.36
2023-03-12T19:44:00.296Z,7.36
2023-03-12T19:47:43.096Z,7.37
2023-03-12T19:51:26.163Z,7.34
2023-03-12T19:55:10.968Z,7.29
2023-03-12T19:58:54.982Z,7.27
2023-03-12T20:02:38.770Z,7.35
2023-03-12T20:06:21.560Z,7.42
2023-03-12T20:10:05.621Z,7.35
2023-03-12T20:13:48.305Z,7.40
2023-03-12T20:17:32.436Z,7.37
2023-03-12T20:21:15.103Z,7.34
2023-03-12T20:24:57.846Z,7.33
2023-03-12T20:28:40.557Z,7.32
2023-03-12T20:32:23.547Z,7.30
2023-03-12T20:36:09.278Z,7.28
2023-03-12T20:39:51.971Z,7.32
2023-03-12T20:43:34.705Z,7.30
2023-03-12T20:47:17.380Z,7.34
2023-03-12T20:51:00.049Z,7.34
2023-03-12T20:54:44.245Z,7.34
2023-03-12T20:58:26.910Z,7.37
2023-03-12T21:02:13.347Z,7.37
2023-03-12T21:05:56.824Z,7.39
2023-03-12T21:09:39.756Z,7.40
2023-03-12T21:13:24.738Z,7.43
2023-03-12T21:17:09.010Z,7.57
2023-03-12T21:20:51.759Z,7.86
2023-03-12T21:24:34.504Z,7.87
2023-03-12T21:28:18.165Z,7.86
2023-03-12T21:32:02.203Z,7.84
2023-03-12T21:35:45.095Z,7.80
2023-03-12T21:39:28.107Z,7.78
2023-03-12T21:43:11.091Z,7.74
2023-03-12T21:46:53.759Z,7.73
2023-03-12T21:50:37.792Z,7.71
2023-03-12T21:54:20.538Z,7.68
2023-03-12T21:58:03.225Z,7.65
2023-03-12T22:01:46.658Z,7.65
2023-03-12T22:05:29.393Z,7.66
2023-03-12T22:09:15.472Z,7.64
2023-03-12T22:13:04.084Z,7.64
2023-03-12T22:16:46.759Z,7.58
2023-03-12T22:20:29.400Z,7.58
2023-03-12T22:24:13.680Z,7.60
2023-03-12T22:27:56.401Z,7.61
2023-03-12T22:31:39.263Z,7.61
2023-03-12T22:35:25.737Z,7.62
2023-03-12T22:39:08.472Z,7.63
2023-03-12T22:42:52.924Z,7.70
2023-03-12T22:46:35.773Z,7.67
2023-03-12T22:50:18.701Z,7.58
2023-03-12T22:54:01.388Z,7.53
2023-03-12T22:57:44.111Z,7.51
2023-03-12T23:01:28.201Z,7.50
2023-03-12T23:05:11.245Z,7.48
2023-03-12T23:08:55.653Z,7.51
2023-03-12T23:12:38.382Z,7.42
2023-03-12T23:16:23.015Z,7.36
2023-03-12T23:20:09.461Z,7.25
2023-03-12T23:23:52.506Z,7.26
2023-03-12T23:27:35.209Z,7.25
2023-03-12T23:31:18.101Z,7.20
2023-03-12T23:35:00.825Z,7.18
2023-03-12T23:38:45.270Z,7.17
2023-03-12T23:42:28.323Z,7.18
2023-03-12T23:46:12.842Z,7.09
2023-03-12T23:49:55.613Z,7.06
2023-03-12T23:53:39.192Z,6.95
2023-03-12T23:57:23.195Z,6.87
